Time;durP1;ratioP1;P1;durP2;ratioP2;P2;SDS_P1;SDS_P2;PMS_P1;PMS_P2;Temp;Humidity;BMP_temperature;BMP_pressure;BME280_temperature;BME280_humidity;BME280_pressure;Samples;Min_cycle;Max_cycle;Signal;HPM_P1;HPM_P2
2023/05/10 00:00:43;;;;;;;3.80;2.30;;;;;;;;;;5070379;28;20426;-56
2023/05/10 00:03:09;;;;;;;2.70;2.40;;;;;;;;;;5070242;28;20407;-58
2023/05/10 00:05:35;;;;;;;4.13;2.33;;;;;;;;;;5070571;28;20399;-58
2023/05/10 00:08:01;;;;;;;2.78;2.40;;;;;;;;;;5070258;28;20755;-56
2023/05/10 00:10:27;;;;;;;3.00;2.28;;;;;;;;;;5070769;28;20395;-56
2023/05/10 00:12:54;;;;;;;5.10;2.45;;;;;;;;;;5070428;28;20410;-56
2023/05/10 00:15:20;;;;;;;3.72;2.50;;;;;;;;;;5070326;28;20411;-56
2023/05/10 00:17:46;;;;;;;2.50;2.30;;;;;;;;;;5070266;28;20484;-56
2023/05/10 00:20:12;;;;;;;3.40;2.50;;;;;;;;;;5070152;28;20948;-56
2023/05/10 00:22:38;;;;;;;2.50;2.20;;;;;;;;;;5070276;28;20430;-56
2023/05/10 00:25:05;;;;;;;3.60;2.35;;;;;;;;;;5070215;28;20407;-56
2023/05/10 00:27:31;;;;;;;2.40;2.20;;;;;;;;;;5070170;28;20870;-56
2023/05/10 00:29:58;;;;;;;2.77;2.20;;;;;;;;;;5070119;28;20445;-56
2023/05/10 00:32:24;;;;;;;2.80;2.40;;;;;;;;;;5070210;28;20416;-57
2023/05/10 00:34:50;;;;;;;2.97;2.40;;;;;;;;;;5070010;28;20419;-56
2023/05/10 00:37:16;;;;;;;3.17;2.35;;;;;;;;;;5069927;28;20820;-57
2023/05/10 00:39:42;;;;;;;3.37;2.30;;;;;;;;;;5070131;28;20441;-57
2023/05/10 00:42:08;;;;;;;3.00;2.28;;;;;;;;;;5069993;28;20411;-57
2023/05/10 00:44:34;;;;;;;2.67;2.20;;;;;;;;;;5070499;28;20403;-57
2023/05/10 00:47:01;;;;;;;3.88;2.30;;;;;;;;;;5069828;28;20744;-57
2023/05/10 00:49:28;;;;;;;3.60;2.40;;;;;;;;;;5070094;28;20409;-57
2023/05/10 00:51:54;;;;;;;2.70;2.30;;;;;;;;;;5069824;28;20431;-57
2023/05/10 00:54:20;;;;;;;2.83;2.42;;;;;;;;;;5070210;28;20415;-57
2023/05/10 00:56:48;;;;;;;3.60;2.50;;;;;;;;;;5069854;28;20399;-57
2023/05/10 00:59:16;;;;;;;2.97;2.40;;;;;;;;;;5069897;28;20407;-58
2023/05/10 01:01:42;;;;;;;3.00;2.70;;;;;;;;;;5069872;28;20437;-57
2023/05/10 01:04:10;;;;;;;2.80;2.60;;;;;;;;;;5073791;28;20427;-57
2023/05/10 01:06:36;;;;;;;3.30;2.47;;;;;;;;;;5073876;28;20452;-56
2023/05/10 01:09:02;;;;;;;3.05;2.40;;;;;;;;;;5073734;28;20426;-56
2023/05/10 01:11:28;;;;;;;3.60;2.42;;;;;;;;;;5073825;28;20392;-56
2023/05/10 01:13:56;;;;;;;3.92;2.50;;;;;;;;;;5073756;28;20399;-57
2023/05/10 01:16:22;;;;;;;2.92;2.60;;;;;;;;;;5073733;28;20929;-57
2023/05/10 01:18:49;;;;;;;3.72;2.40;;;;;;;;;;5073718;28;20422;-56
2023/05/10 01:21:19;;;;;;;3.15;2.58;;;;;;;;;;5073394;28;20473;-56
2023/05/10 01:24:00;;;;;;;3.10;2.53;;;;;;;;;;5073619;28;20929;-56
2023/05/10 01:26:56;;;;;;;2.90;2.30;;;;;;;;;;5071036;28;20876;-57
2023/05/10 01:29:45;;;;;;;4.20;2.40;;;;;;;;;;5011337;28;20476;-57
2023/05/10 01:32:22;;;;;;;4.60;2.58;;;;;;;;;;5068162;28;20543;-57
2023/05/10 01:34:53;;;;;;;4.05;2.40;;;;;;;;;;5073259;28;20479;-56
2023/05/10 01:37:22;;;;;;;5.13;2.70;;;;;;;;;;5073276;28;20459;-57
2023/05/10 01:39:50;;;;;;;4.55;2.65;;;;;;;;;;5073249;28;20819;-57
2023/05/10 01:42:18;;;;;;;3.40;2.45;;;;;;;;;;5073177;28;20817;-56
2023/05/10 01:44:48;;;;;;;2.78;2.53;;;;;;;;;;5073065;28;20506;-56
2023/05/10 01:47:17;;;;;;;3.33;2.60;;;;;;;;;;5073023;28;20444;-56
2023/05/10 01:49:47;;;;;;;4.93;2.60;;;;;;;;;;5073208;28;20437;-56
2023/05/10 01:52:14;;;;;;;2.90;2.60;;;;;;;;;;5072725;28;20478;-56
2023/05/10 01:54:43;;;;;;;3.60;2.80;;;;;;;;;;5072998;28;20407;-56
2023/05/10 01:57:12;;;;;;;3.30;2.53;;;;;;;;;;5072621;28;20448;-56
2023/05/10 01:59:40;;;;;;;2.97;2.67;;;;;;;;;;5073114;28;20403;-56
2023/05/10 02:02:07;;;;;;;5.40;2.60;;;;;;;;;;5072831;28;20441;-56
2023/05/10 02:04:35;;;;;;;4.72;2.67;;;;;;;;;;5072744;28;20411;-56
2023/05/10 02:07:03;;;;;;;4.65;2.78;;;;;;;;;;5072543;28;20462;-57
2023/05/10 02:09:31;;;;;;;3.90;2.65;;;;;;;;;;5072754;28;20415;-56
2023/05/10 02:11:59;;;;;;;3.30;2.90;;;;;;;;;;5072629;28;20483;-57
2023/05/10 02:14:26;;;;;;;3.00;2.70;;;;;;;;;;5072028;28;20521;-57
2023/05/10 02:16:54;;;;;;;3.50;2.70;;;;;;;;;;5072579;28;20418;-57
2023/05/10 02:19:21;;;;;;;4.78;2.90;;;;;;;;;;5072528;28;20442;-57
2023/05/10 02:21:47;;;;;;;4.30;3.10;;;;;;;;;;5072544;28;20464;-57
2023/05/10 02:24:16;;;;;;;2.97;2.72;;;;;;;;;;5072341;28;20406;-57
2023/05/10 02:26:42;;;;;;;3.60;2.85;;;;;;;;;;5072266;28;20982;-57
2023/05/10 02:29:09;;;;;;;2.83;2.60;;;;;;;;;;5072277;28;20412;-57
2023/05/10 02:31:35;;;;;;;5.03;3.00;;;;;;;;;;5072453;28;20759;-56
2023/05/10 02:34:03;;;;;;;3.92;2.80;;;;;;;;;;5071970;28;20761;-56
2023/05/10 02:36:29;;;;;;;3.58;2.90;;;;;;;;;;5072143;28;20407;-56
2023/05/10 02:38:55;;;;;;;3.10;2.80;;;;;;;;;;5072175;28;20430;-57
2023/05/10 02:41:23;;;;;;;4.85;3.00;;;;;;;;;;5072079;28;20407;-56
2023/05/10 02:43:51;;;;;;;3.45;2.85;;;;;;;;;;5072298;28;20814;-57
2023/05/10 02:46:17;;;;;;;3.15;2.85;;;;;;;;;;5071890;28;20791;-56
2023/05/10 02:48:43;;;;;;;3.10;2.80;;;;;;;;;;5071909;28;20399;-56
2023/05/10 02:51:12;;;;;;;3.60;2.60;;;;;;;;;;5071713;28;20411;-57
2023/05/10 02:53:39;;;;;;;3.40;2.75;;;;;;;;;;5071939;28;20452;-56
2023/05/10 02:56:08;;;;;;;4.15;3.20;;;;;;;;;;5071818;28;20395;-56
2023/05/10 02:58:36;;;;;;;4.30;2.90;;;;;;;;;;5071831;28;20475;-56
2023/05/10 03:01:02;;;;;;;3.30;3.00;;;;;;;;;;5071699;28;20469;-57
2023/05/10 03:03:28;;;;;;;3.25;2.92;;;;;;;;;;5071548;28;20404;-57
2023/05/10 03:05:55;;;;;;;3.38;3.08;;;;;;;;;;5071724;28;20449;-56
2023/05/10 03:08:21;;;;;;;3.33;2.95;;;;;;;;;;5071620;28;20812;-56
2023/05/10 03:10:51;;;;;;;3.20;2.90;;;;;;;;;;5071594;28;20479;-56
2023/05/10 03:13:25;;;;;;;3.83;3.00;;;;;;;;;;5071363;28;20806;-56
2023/05/10 03:15:56;;;;;;;4.20;3.25;;;;;;;;;;5071563;28;20404;-56
2023/05/10 03:18:23;;;;;;;4.30;3.03;;;;;;;;;;5071342;28;20445;-56
2023/05/10 03:20:50;;;;;;;4.15;3.03;;;;;;;;;;5071263;28;20932;-56
2023/05/10 03:23:21;;;;;;;5.20;3.10;;;;;;;;;;5071148;28;20757;-56
2023/05/10 03:25:48;;;;;;;3.75;3.40;;;;;;;;;;5070213;28;20499;-56
2023/05/10 03:28:15;;;;;;;4.10;3.20;;;;;;;;;;5071041;28;20408;-56
2023/05/10 03:30:41;;;;;;;3.42;3.10;;;;;;;;;;5071158;28;20400;-56
2023/05/10 03:33:09;;;;;;;3.50;3.20;;;;;;;;;;5070804;28;20943;-55
2023/05/10 03:35:35;;;;;;;4.03;3.42;;;;;;;;;;5070949;28;20518;-55
2023/05/10 03:38:01;;;;;;;3.90;3.30;;;;;;;;;;5070804;28;20917;-55
2023/05/10 03:40:28;;;;;;;3.75;3.45;;;;;;;;;;5070710;28;20885;-55
2023/05/10 03:42:54;;;;;;;4.13;3.50;;;;;;;;;;5070888;28;20407;-55
2023/05/10 03:45:21;;;;;;;4.78;3.58;;;;;;;;;;5070688;28;20754;-56
2023/05/10 03:47:47;;;;;;;3.92;3.53;;;;;;;;;;5070893;28;20437;-56
2023/05/10 03:50:14;;;;;;;3.92;3.60;;;;;;;;;;5070408;28;20407;-56
2023/05/10 03:52:40;;;;;;;3.60;3.30;;;;;;;;;;5070655;28;20403;-56
2023/05/10 03:55:07;;;;;;;4.15;3.78;;;;;;;;;;5070580;28;20403;-56
2023/05/10 03:57:33;;;;;;;4.75;4.10;;;;;;;;;;5070477;28;21012;-57
2023/05/10 03:59:59;;;;;;;4.40;4.00;;;;;;;;;;5070412;28;20471;-56
2023/05/10 04:02:25;;;;;;;4.43;3.72;;;;;;;;;;5070390;28;20805;-56
2023/05/10 04:04:51;;;;;;;4.70;3.65;;;;;;;;;;5070459;28;20412;-56
2023/05/10 04:07:19;;;;;;;4.80;4.07;;;;;;;;;;5069851;28;20388;-57
2023/05/10 04:09:45;;;;;;;5.35;3.83;;;;;;;;;;5070420;28;20449;-56
2023/05/10 04:12:11;;;;;;;4.65;3.97;;;;;;;;;;5070200;28;20479;-55
2023/05/10 04:14:37;;;;;;;6.40;4.28;;;;;;;;;;5070427;28;20482;-55
2023/05/10 04:17:03;;;;;;;4.07;3.65;;;;;;;;;;5070240;28;20392;-55
2023/05/10 04:19:30;;;;;;;4.40;4.00;;;;;;;;;;5070210;28;20465;-55
2023/05/10 04:21:56;;;;;;;4.22;3.75;;;;;;;;;;5070009;28;20858;-54
2023/05/10 04:24:23;;;;;;;4.50;4.10;;;;;;;;;;5070251;28;20445;-54
2023/05/10 04:26:49;;;;;;;6.60;4.30;;;;;;;;;;5070266;28;20419;-55
2023/05/10 04:29:15;;;;;;;4.38;3.97;;;;;;;;;;5070019;28;20886;-56
2023/05/10 04:31:41;;;;;;;4.00;3.60;;;;;;;;;;5070115;28;20422;-57
2023/05/10 04:34:07;;;;;;;4.00;3.60;;;;;;;;;;5070110;28;20663;-57
2023/05/10 04:36:35;;;;;;;4.20;3.80;;;;;;;;;;5069858;28;20407;-57
2023/05/10 04:39:02;;;;;;;4.30;3.90;;;;;;;;;;5069724;28;20415;-57
2023/05/10 04:41:30;;;;;;;4.82;4.03;;;;;;;;;;5069989;28;20450;-56
2023/05/10 04:44:04;;;;;;;5.80;4.07;;;;;;;;;;5069874;28;20498;-57
2023/05/10 04:46:29;;;;;;;7.78;4.80;;;;;;;;;;5069843;28;20448;-58
2023/05/10 04:48:55;;;;;;;5.43;4.90;;;;;;;;;;5069963;28;20944;-57
2023/05/10 04:51:21;;;;;;;5.65;5.05;;;;;;;;;;5069823;28;20437;-56
2023/05/10 04:53:48;;;;;;;6.40;5.60;;;;;;;;;;5070002;28;20410;-55
2023/05/10 04:56:14;;;;;;;6.10;5.50;;;;;;;;;;5069739;28;20765;-55
2023/05/10 04:58:41;;;;;;;8.65;6.10;;;;;;;;;;5069802;28;20808;-55
2023/05/10 05:01:07;;;;;;;6.13;5.53;;;;;;;;;;5070009;28;20411;-55
2023/05/10 05:03:34;;;;;;;6.90;5.63;;;;;;;;;;5069832;28;20469;-55
2023/05/10 05:06:00;;;;;;;5.77;5.20;;;;;;;;;;5069862;28;20465;-54
2023/05/10 05:08:26;;;;;;;6.40;5.60;;;;;;;;;;5069693;28;20399;-56
2023/05/10 05:10:52;;;;;;;6.20;5.60;;;;;;;;;;5070010;28;20427;-55
2023/05/10 05:13:18;;;;;;;6.43;5.70;;;;;;;;;;5069588;28;20395;-55
2023/05/10 05:15:45;;;;;;;6.00;5.50;;;;;;;;;;5069740;28;20465;-55
2023/05/10 05:18:11;;;;;;;6.28;5.53;;;;;;;;;;5069045;28;20782;-55
2023/05/10 05:20:37;;;;;;;8.95;6.00;;;;;;;;;;5069212;28;20870;-54
2023/05/10 05:23:03;;;;;;;8.03;5.63;;;;;;;;;;5069623;28;20388;-55
2023/05/10 05:25:29;;;;;;;7.28;5.85;;;;;;;;;;5069554;28;20735;-55
2023/05/10 05:27:55;;;;;;;7.10;6.10;;;;;;;;;;5069632;28;20862;-55
2023/05/10 05:30:21;;;;;;;6.90;5.95;;;;;;;;;;5069532;28;20458;-55
2023/05/10 05:32:48;;;;;;;6.93;6.13;;;;;;;;;;5069670;28;20399;-58
2023/05/10 05:35:15;;;;;;;7.75;6.95;;;;;;;;;;5069173;28;20810;-55
2023/05/10 05:37:41;;;;;;;7.60;6.07;;;;;;;;;;5069494;28;20526;-54
2023/05/10 05:40:07;;;;;;;6.83;6.13;;;;;;;;;;5069695;28;20419;-54
2023/05/10 05:42:33;;;;;;;9.00;6.93;;;;;;;;;;5069581;28;20412;-54
2023/05/10 05:44:59;;;;;;;6.63;6.03;;;;;;;;;;5069329;28;20399;-54
2023/05/10 05:47:25;;;;;;;7.10;6.40;;;;;;;;;;5069371;28;20427;-56
2023/05/10 05:49:52;;;;;;;7.93;7.05;;;;;;;;;;5071016;28;20793;-57
2023/05/10 05:52:19;;;;;;;7.40;6.70;;;;;;;;;;5072919;28;20455;-55
2023/05/10 05:54:45;;;;;;;8.60;7.70;;;;;;;;;;5072727;28;20395;-55
2023/05/10 05:57:11;;;;;;;8.10;7.30;;;;;;;;;;5072759;28;20419;-55
2023/05/10 05:59:41;;;;;;;8.52;7.30;;;;;;;;;;5073026;28;20457;-55
2023/05/10 06:02:07;;;;;;;7.75;7.05;;;;;;;;;;5072820;28;20882;-56
2023/05/10 06:04:33;;;;;;;8.38;6.63;;;;;;;;;;5072600;28;20403;-56
2023/05/10 06:07:00;;;;;;;7.03;6.43;;;;;;;;;;5072724;28;20406;-55
2023/05/10 06:09:26;;;;;;;7.53;6.82;;;;;;;;;;5072633;28;20411;-55
2023/05/10 06:11:52;;;;;;;7.88;7.00;;;;;;;;;;5072783;28;20410;-55
2023/05/10 06:14:20;;;;;;;6.97;6.28;;;;;;;;;;5072613;28;20399;-55
2023/05/10 06:16:46;;;;;;;7.72;6.97;;;;;;;;;;5072475;28;20408;-55
2023/05/10 06:19:12;;;;;;;7.10;6.40;;;;;;;;;;5072382;28;20423;-55
2023/05/10 06:21:38;;;;;;;7.05;6.35;;;;;;;;;;5072280;28;20439;-55
2023/05/10 06:24:06;;;;;;;7.93;7.20;;;;;;;;;;5072578;28;20411;-56
2023/05/10 06:26:32;;;;;;;7.15;6.45;;;;;;;;;;5072207;28;20411;-55
2023/05/10 06:28:58;;;;;;;7.17;6.47;;;;;;;;;;5072382;28;20396;-55
2023/05/10 06:31:24;;;;;;;7.43;6.75;;;;;;;;;;5072114;28;20482;-55
2023/05/10 06:33:50;;;;;;;7.90;7.03;;;;;;;;;;5072117;28;20819;-56
2023/05/10 06:36:16;;;;;;;7.60;6.93;;;;;;;;;;5072135;28;20404;-56
2023/05/10 06:38:42;;;;;;;7.97;7.20;;;;;;;;;;5071998;28;20419;-57
2023/05/10 06:41:10;;;;;;;8.10;7.30;;;;;;;;;;5072122;28;20875;-56
2023/05/10 06:43:39;;;;;;;7.80;7.10;;;;;;;;;;5072616;28;20403;-56
2023/05/10 06:46:06;;;;;;;7.82;7.03;;;;;;;;;;5071988;28;20396;-55
2023/05/10 06:48:32;;;;;;;7.45;6.80;;;;;;;;;;5071960;28;20454;-56
2023/05/10 06:50:59;;;;;;;9.65;8.65;;;;;;;;;;5071886;28;20398;-56
2023/05/10 06:53:25;;;;;;;8.60;7.90;;;;;;;;;;5071691;28;20453;-56
2023/05/10 06:55:51;;;;;;;9.75;8.52;;;;;;;;;;5072049;28;20399;-56
2023/05/10 06:58:18;;;;;;;7.88;7.18;;;;;;;;;;5071693;28;20441;-56
2023/05/10 07:00:45;;;;;;;9.43;7.30;;;;;;;;;;5071390;28;20395;-56
2023/05/10 07:03:11;;;;;;;7.30;6.70;;;;;;;;;;5071441;28;20794;-56
2023/05/10 07:05:37;;;;;;;8.17;7.10;;;;;;;;;;5071610;28;20449;-56
2023/05/10 07:08:03;;;;;;;7.47;6.88;;;;;;;;;;5071537;28;20404;-56
2023/05/10 07:10:29;;;;;;;7.30;6.60;;;;;;;;;;5071428;28;20502;-57
2023/05/10 07:12:55;;;;;;;7.78;7.10;;;;;;;;;;5071424;28;20406;-56
2023/05/10 07:15:23;;;;;;;7.60;6.90;;;;;;;;;;5071578;28;20395;-56
2023/05/10 07:17:49;;;;;;;8.00;7.30;;;;;;;;;;5071393;28;20518;-56
2023/05/10 07:20:15;;;;;;;8.97;8.13;;;;;;;;;;5071270;28;21017;-57
2023/05/10 07:22:41;;;;;;;8.25;7.55;;;;;;;;;;5071149;28;20430;-56
2023/05/10 07:25:07;;;;;;;7.93;7.13;;;;;;;;;;5071395;28;20395;-56
2023/05/10 07:27:33;;;;;;;8.67;7.87;;;;;;;;;;5071182;28;20841;-56
2023/05/10 07:30:00;;;;;;;9.70;8.80;;;;;;;;;;5071076;28;20914;-57
2023/05/10 07:32:27;;;;;;;9.15;8.35;;;;;;;;;;5070995;28;20404;-57
2023/05/10 07:34:53;;;;;;;9.00;8.10;;;;;;;;;;5070734;28;20912;-56
2023/05/10 07:37:19;;;;;;;9.00;8.10;;;;;;;;;;5070930;28;20387;-56
2023/05/10 07:39:45;;;;;;;7.65;7.05;;;;;;;;;;5070819;28;20494;-57
2023/05/10 07:42:11;;;;;;;8.43;7.63;;;;;;;;;;5070639;28;20478;-56
2023/05/10 07:44:37;;;;;;;7.63;6.93;;;;;;;;;;5071393;28;20507;-56
2023/05/10 07:47:03;;;;;;;9.18;8.27;;;;;;;;;;5070853;28;20407;-56
2023/05/10 07:49:31;;;;;;;7.85;7.15;;;;;;;;;;5070491;28;20442;-56
2023/05/10 07:51:57;;;;;;;8.10;7.40;;;;;;;;;;5070456;28;20672;-56
2023/05/10 07:54:23;;;;;;;6.70;6.20;;;;;;;;;;5070794;28;20412;-56
2023/05/10 07:56:49;;;;;;;7.40;6.70;;;;;;;;;;5070561;28;20908;-56
2023/05/10 07:59:15;;;;;;;6.18;5.70;;;;;;;;;;5070567;28;20498;-56
2023/05/10 08:01:42;;;;;;;6.20;5.70;;;;;;;;;;5070485;28;20899;-56
2023/05/10 08:04:08;;;;;;;5.70;5.30;;;;;;;;;;5070579;28;20832;-56
2023/05/10 08:06:36;;;;;;;4.68;4.28;;;;;;;;;;5070456;28;20949;-57
2023/05/10 08:09:02;;;;;;;3.67;3.40;;;;;;;;;;5070447;28;20432;-57
2023/05/10 08:11:28;;;;;;;3.60;3.33;;;;;;;;;;5070203;28;20482;-57
2023/05/10 08:13:54;;;;;;;3.47;3.28;;;;;;;;;;5069907;28;20937;-57
2023/05/10 08:16:20;;;;;;;3.15;2.95;;;;;;;;;;5070408;28;20438;-56
2023/05/10 08:18:47;;;;;;;3.20;3.00;;;;;;;;;;5070023;28;20416;-56
2023/05/10 08:21:13;;;;;;;3.43;3.13;;;;;;;;;;5070290;28;20404;-56
2023/05/10 08:23:40;;;;;;;3.08;2.80;;;;;;;;;;5070297;28;20396;-55
2023/05/10 08:26:06;;;;;;;3.60;3.30;;;;;;;;;;5070487;28;20763;-56
2023/05/10 08:28:32;;;;;;;3.22;2.97;;;;;;;;;;5070182;28;20407;-56
2023/05/10 08:30:58;;;;;;;3.75;3.45;;;;;;;;;;5070322;28;20420;-56
2023/05/10 08:33:24;;;;;;;3.85;3.55;;;;;;;;;;5069948;28;20941;-56
2023/05/10 08:35:50;;;;;;;3.42;3.13;;;;;;;;;;5069983;28;20415;-56
2023/05/10 08:38:16;;;;;;;3.55;3.25;;;;;;;;;;5069998;28;20427;-56
2023/05/10 08:40:44;;;;;;;3.70;3.40;;;;;;;;;;5070020;28;20450;-56
2023/05/10 08:43:11;;;;;;;3.85;3.55;;;;;;;;;;5070163;28;20455;-57
2023/05/10 08:45:39;;;;;;;3.65;3.40;;;;;;;;;;5070086;28;20403;-56
2023/05/10 08:48:06;;;;;;;3.60;3.30;;;;;;;;;;5070089;28;21005;-57
2023/05/10 08:50:32;;;;;;;3.50;3.30;;;;;;;;;;5070070;28;20864;-57
2023/05/10 08:52:59;;;;;;;3.75;3.45;;;;;;;;;;5069982;28;20445;-57
2023/05/10 08:55:25;;;;;;;4.80;4.40;;;;;;;;;;5069909;28;20396;-56
2023/05/10 08:57:53;;;;;;;4.03;3.73;;;;;;;;;;5069788;28;20411;-56
2023/05/10 09:00:20;;;;;;;4.20;3.90;;;;;;;;;;5070185;28;20457;-57
2023/05/10 09:02:46;;;;;;;4.18;3.88;;;;;;;;;;5069705;28;20407;-57
2023/05/10 09:05:12;;;;;;;4.10;3.80;;;;;;;;;;5069407;28;20942;-57
2023/05/10 09:07:38;;;;;;;3.72;3.42;;;;;;;;;;5069780;28;20403;-58
2023/05/10 09:10:05;;;;;;;3.30;3.05;;;;;;;;;;5069871;28;20481;-58
2023/05/10 09:12:31;;;;;;;3.42;3.13;;;;;;;;;;5069704;28;20391;-56
2023/05/10 09:15:00;;;;;;;3.63;3.30;;;;;;;;;;5069585;28;20946;-58
2023/05/10 09:17:26;;;;;;;4.57;3.40;;;;;;;;;;5069601;28;20510;-59
2023/05/10 09:19:57;;;;;;;3.42;2.80;;;;;;;;;;5069490;28;20459;-58
2023/05/10 09:22:24;;;;;;;2.90;2.70;;;;;;;;;;5069833;28;20444;-57
2023/05/10 09:25:03;;;;;;;3.00;2.80;;;;;;;;;;5071524;28;20408;-56
2023/05/10 09:27:29;;;;;;;3.40;2.80;;;;;;;;;;5073546;28;20453;-60
2023/05/10 09:29:55;;;;;;;3.50;3.20;;;;;;;;;;5073216;28;20399;-58
2023/05/10 09:32:28;;;;;;;3.38;3.08;;;;;;;;;;5071807;28;20411;-59
2023/05/10 09:34:54;;;;;;;3.20;2.90;;;;;;;;;;5073393;28;20459;-60
2023/05/10 09:37:29;;;;;;;4.10;3.70;;;;;;;;;;5073651;28;20439;-60
2023/05/10 09:39:55;;;;;;;4.07;3.78;;;;;;;;;;5073004;28;20420;-60
2023/05/10 09:42:21;;;;;;;4.28;3.72;;;;;;;;;;5072996;28;20471;-60
2023/05/10 09:44:47;;;;;;;4.23;3.83;;;;;;;;;;5072916;28;20902;-60
2023/05/10 09:47:18;;;;;;;4.40;4.10;;;;;;;;;;5072889;28;20396;-60
2023/05/10 09:49:49;;;;;;;4.43;4.03;;;;;;;;;;5072586;28;20617;-60
2023/05/10 09:52:16;;;;;;;4.85;4.40;;;;;;;;;;5072682;28;20902;-60
2023/05/10 09:54:52;;;;;;;4.93;4.25;;;;;;;;;;5072677;28;20453;-60
2023/05/10 09:57:21;;;;;;;5.00;4.50;;;;;;;;;;5072864;28;20978;-61
2023/05/10 09:59:47;;;;;;;4.90;4.40;;;;;;;;;;5072349;28;20422;-61
2023/05/10 10:02:14;;;;;;;5.03;4.63;;;;;;;;;;5072595;28;20426;-61
2023/05/10 10:04:40;;;;;;;4.43;4.03;;;;;;;;;;5072314;28;20400;-60
2023/05/10 10:07:07;;;;;;;5.10;4.40;;;;;;;;;;5073161;28;20407;-61
2023/05/10 10:09:34;;;;;;;5.05;4.55;;;;;;;;;;5073016;28;20399;-59
2023/05/10 10:12:00;;;;;;;4.87;4.40;;;;;;;;;;5072683;28;20490;-60
2023/05/10 10:14:26;;;;;;;5.30;4.80;;;;;;;;;;5072425;28;20439;-60
2023/05/10 10:16:52;;;;;;;5.37;4.90;;;;;;;;;;5072746;28;20733;-59
2023/05/10 10:19:19;;;;;;;5.85;5.35;;;;;;;;;;5072787;28;20487;-59
2023/05/10 10:21:45;;;;;;;5.63;5.13;;;;;;;;;;5072421;28;20796;-59
2023/05/10 10:24:12;;;;;;;4.97;4.50;;;;;;;;;;5072495;28;20480;-59
2023/05/10 10:26:40;;;;;;;5.50;5.00;;;;;;;;;;5072302;28;20901;-59
2023/05/10 10:29:11;;;;;;;5.72;5.00;;;;;;;;;;5072486;28;20882;-59
2023/05/10 10:31:39;;;;;;;4.80;4.35;;;;;;;;;;5072416;28;20408;-59
2023/05/10 10:34:09;;;;;;;5.40;4.90;;;;;;;;;;5072120;28;20406;-59
2023/05/10 10:36:40;;;;;;;4.90;4.50;;;;;;;;;;5071885;28;20392;-59
2023/05/10 10:39:09;;;;;;;4.18;3.78;;;;;;;;;;5072287;28;20448;-59
2023/05/10 10:41:37;;;;;;;4.50;4.10;;;;;;;;;;5072307;28;20482;-59
2023/05/10 10:44:24;;;;;;;4.82;4.43;;;;;;;;;;5072128;28;20442;-58
2023/05/10 10:47:00;;;;;;;4.88;4.38;;;;;;;;;;5072160;28;20402;-59
2023/05/10 10:49:26;;;;;;;5.03;4.63;;;;;;;;;;5071912;28;20392;-59
2023/05/10 10:52:10;;;;;;;5.63;5.13;;;;;;;;;;5072042;28;20400;-59
2023/05/10 10:54:36;;;;;;;6.72;6.13;;;;;;;;;;5071961;28;20877;-62
2023/05/10 10:57:16;;;;;;;6.20;5.47;;;;;;;;;;5071925;28;20395;-59
2023/05/10 10:59:43;;;;;;;6.60;6.00;;;;;;;;;;5071694;28;20905;-60
2023/05/10 11:02:09;;;;;;;6.30;5.80;;;;;;;;;;5071799;28;20442;-60
2023/05/10 11:04:43;;;;;;;6.13;5.53;;;;;;;;;;5071671;28;20754;-59
2023/05/10 11:07:18;;;;;;;6.80;6.03;;;;;;;;;;5071469;28;20408;-60
2023/05/10 11:09:44;;;;;;;7.25;6.05;;;;;;;;;;5071533;28;20442;-60
2023/05/10 11:12:12;;;;;;;7.13;6.43;;;;;;;;;;5071249;28;20886;-60
2023/05/10 11:14:38;;;;;;;7.07;6.47;;;;;;;;;;5071512;28;20407;-59
2023/05/10 11:17:22;;;;;;;6.20;5.60;;;;;;;;;;5071382;28;20423;-60
2023/05/10 11:20:03;;;;;;;6.35;5.70;;;;;;;;;;5069332;28;20961;-59
2023/05/10 11:22:29;;;;;;;6.38;5.55;;;;;;;;;;5071390;28;20404;-59
2023/05/10 11:24:59;;;;;;;6.32;5.80;;;;;;;;;;5071228;28;20475;-57
2023/05/10 11:27:26;;;;;;;6.30;5.70;;;;;;;;;;5071107;28;20487;-56
2023/05/10 11:29:52;;;;;;;6.75;6.05;;;;;;;;;;5071288;28;20400;-57
2023/05/10 11:32:19;;;;;;;6.10;5.50;;;;;;;;;;5071234;28;20400;-58
2023/05/10 11:34:48;;;;;;;6.95;5.65;;;;;;;;;;5071054;28;20408;-58
2023/05/10 11:37:14;;;;;;;7.72;6.97;;;;;;;;;;5068051;28;20591;-58
2023/05/10 11:39:47;;;;;;;6.20;5.70;;;;;;;;;;5068666;28;20419;-60
2023/05/10 11:42:13;;;;;;;8.13;6.82;;;;;;;;;;5070950;28;21197;-57
2023/05/10 11:44:43;;;;;;;10.87;8.07;;;;;;;;;;5070330;28;20799;-57
2023/05/10 11:47:09;;;;;;;8.07;7.25;;;;;;;;;;5069937;28;20496;-57
2023/05/10 11:49:35;;;;;;;5.47;4.00;;;;;;;;;;5070852;28;20395;-57
2023/05/10 11:52:05;;;;;;;4.13;3.70;;;;;;;;;;5070887;28;20396;-60
2023/05/10 11:54:31;;;;;;;4.10;3.60;;;;;;;;;;5070764;28;20810;-57
2023/05/10 11:56:57;;;;;;;4.28;3.67;;;;;;;;;;5070397;28;20399;-60
2023/05/10 11:59:22;;;;;;;4.03;3.70;;;;;;;;;;5070701;28;20818;-59
2023/05/10 12:01:50;;;;;;;5.35;4.85;;;;;;;;;;5070623;28;20399;-60
2023/05/10 12:04:16;;;;;;;6.97;5.28;;;;;;;;;;5070557;28;20415;-60
2023/05/10 12:06:42;;;;;;;5.60;5.10;;;;;;;;;;5070555;28;20392;-61
2023/05/10 12:09:08;;;;;;;7.85;5.80;;;;;;;;;;5070086;28;20392;-59
2023/05/10 12:11:37;;;;;;;7.10;6.40;;;;;;;;;;5070623;28;20439;-59
2023/05/10 12:14:05;;;;;;;7.13;6.43;;;;;;;;;;5070400;28;20505;-60
2023/05/10 12:16:31;;;;;;;8.10;7.30;;;;;;;;;;5070611;28;20426;-59
2023/05/10 12:18:59;;;;;;;9.35;8.07;;;;;;;;;;5069890;28;20408;-58
2023/05/10 12:21:26;;;;;;;10.07;9.07;;;;;;;;;;5070424;28;20770;-59
2023/05/10 12:23:53;;;;;;;11.05;10.05;;;;;;;;;;5070284;28;20928;-59
2023/05/10 12:26:22;;;;;;;12.40;10.63;;;;;;;;;;5070668;28;20392;-59
2023/05/10 12:28:48;;;;;;;9.40;8.50;;;;;;;;;;5070255;28;20403;-60
2023/05/10 12:31:14;;;;;;;10.57;9.48;;;;;;;;;;5070259;28;20406;-58
2023/05/10 12:33:43;;;;;;;9.60;8.70;;;;;;;;;;5067867;28;20973;-60
2023/05/10 12:36:11;;;;;;;12.68;11.38;;;;;;;;;;5068480;28;20435;-58
2023/05/10 12:38:38;;;;;;;12.30;11.15;;;;;;;;;;5070412;28;20418;-58
2023/05/10 12:41:06;;;;;;;13.82;12.32;;;;;;;;;;5070311;28;20907;-57
2023/05/10 12:43:32;;;;;;;11.88;10.77;;;;;;;;;;5070291;28;20461;-58
2023/05/10 12:45:58;;;;;;;11.90;10.70;;;;;;;;;;5070219;28;20399;-58
2023/05/10 12:48:25;;;;;;;10.97;9.87;;;;;;;;;;5070126;28;20451;-59
2023/05/10 12:50:51;;;;;;;10.95;9.85;;;;;;;;;;5070424;28;20407;-59
2023/05/10 12:53:18;;;;;;;10.50;8.77;;;;;;;;;;5070093;28;20395;-60
2023/05/10 12:55:44;;;;;;;8.30;7.50;;;;;;;;;;5070218;28;20404;-58
2023/05/10 12:58:10;;;;;;;8.10;7.13;;;;;;;;;;5070686;28;20423;-58
2023/05/10 13:00:37;;;;;;;7.68;6.72;;;;;;;;;;5074484;28;20474;-57
2023/05/10 13:03:05;;;;;;;6.63;6.03;;;;;;;;;;5074135;28;20402;-56
2023/05/10 13:05:31;;;;;;;7.75;5.35;;;;;;;;;;5074136;28;20907;-58
2023/05/10 13:07:57;;;;;;;5.40;4.70;;;;;;;;;;5074021;28;20395;-57
2023/05/10 13:10:25;;;;;;;6.40;4.80;;;;;;;;;;5074287;28;20412;-57
2023/05/10 13:12:50;;;;;;;4.70;3.40;;;;;;;;;;5074141;28;20940;-57
2023/05/10 13:15:16;;;;;;;4.00;3.60;;;;;;;;;;5074024;28;20407;-57
2023/05/10 13:17:43;;;;;;;4.22;3.63;;;;;;;;;;5074000;28;20399;-57
2023/05/10 13:20:09;;;;;;;3.50;3.20;;;;;;;;;;5073710;28;20423;-57
2023/05/10 13:22:35;;;;;;;4.72;4.32;;;;;;;;;;5074136;28;20800;-57
2023/05/10 13:25:01;;;;;;;5.53;4.47;;;;;;;;;;5073834;28;20885;-57
2023/05/10 13:27:29;;;;;;;5.38;4.03;;;;;;;;;;5073775;28;20395;-57
2023/05/10 13:29:55;;;;;;;4.33;3.80;;;;;;;;;;5073757;28;20450;-57
2023/05/10 13:32:21;;;;;;;3.42;3.13;;;;;;;;;;5073839;28;20392;-57
2023/05/10 13:34:47;;;;;;;4.30;3.00;;;;;;;;;;5073351;28;20494;-57
2023/05/10 13:37:13;;;;;;;3.20;2.80;;;;;;;;;;5073490;28;20501;-57
2023/05/10 13:39:39;;;;;;;3.90;2.40;;;;;;;;;;5073620;28;20420;-56
2023/05/10 13:42:05;;;;;;;2.75;2.33;;;;;;;;;;5073658;28;20818;-57
2023/05/10 13:44:33;;;;;;;2.47;2.10;;;;;;;;;;5074006;28;20414;-58
2023/05/10 13:46:59;;;;;;;2.60;1.93;;;;;;;;;;5073384;28;20427;-58
2023/05/10 13:49:25;;;;;;;2.03;1.83;;;;;;;;;;5073322;28;20400;-58
2023/05/10 13:51:52;;;;;;;1.60;1.50;;;;;;;;;;5073546;28;20399;-58
2023/05/10 13:54:19;;;;;;;1.30;1.20;;;;;;;;;;5073460;28;20406;-58
2023/05/10 13:56:47;;;;;;;2.00;1.40;;;;;;;;;;5073301;28;20431;-58
2023/05/10 13:59:13;;;;;;;1.40;1.30;;;;;;;;;;5072978;28;20407;-57
2023/05/10 14:01:41;;;;;;;1.52;1.40;;;;;;;;;;5073275;28;20388;-57
2023/05/10 14:04:09;;;;;;;2.28;1.40;;;;;;;;;;5072989;28;20438;-57
2023/05/10 14:06:36;;;;;;;1.40;1.17;;;;;;;;;;5073320;28;20478;-58
2023/05/10 14:09:02;;;;;;;1.48;1.38;;;;;;;;;;5073034;28;20415;-57
2023/05/10 14:11:28;;;;;;;3.50;1.42;;;;;;;;;;5071940;28;20885;-57
2023/05/10 14:13:54;;;;;;;1.80;1.20;;;;;;;;;;5073058;28;20828;-57
2023/05/10 14:16:20;;;;;;;2.20;1.30;;;;;;;;;;5073095;28;20392;-58
2023/05/10 14:18:47;;;;;;;2.80;1.35;;;;;;;;;;5072501;28;20801;-57
2023/05/10 14:21:13;;;;;;;1.45;1.30;;;;;;;;;;5072790;28;20465;-58
2023/05/10 14:23:39;;;;;;;1.33;1.23;;;;;;;;;;5072678;28;20397;-57
2023/05/10 14:26:06;;;;;;;2.40;1.60;;;;;;;;;;5072863;28;20470;-56
2023/05/10 14:28:32;;;;;;;1.75;1.30;;;;;;;;;;5072922;28;20822;-57
2023/05/10 14:30:58;;;;;;;1.50;1.30;;;;;;;;;;5072556;28;20399;-57
2023/05/10 14:33:24;;;;;;;1.40;1.20;;;;;;;;;;5072411;28;20466;-56
2023/05/10 14:35:52;;;;;;;1.20;1.10;;;;;;;;;;5072810;28;20479;-56
2023/05/10 14:38:18;;;;;;;2.75;1.30;;;;;;;;;;5072232;28;20437;-56
2023/05/10 14:40:44;;;;;;;1.80;1.30;;;;;;;;;;5072445;28;20411;-56
2023/05/10 14:43:10;;;;;;;1.58;1.30;;;;;;;;;;5072400;28;20491;-56